Time;durP1;ratioP1;P1;durP2;ratioP2;P2;SDS_P1;SDS_P2;PMS_P1;PMS_P2;Temp;Humidity;BMP_temperature;BMP_pressure;BME280_temperature;BME280_humidity;BME280_pressure;Samples;Min_cycle;Max_cycle;Signal;HPM_P1;HPM_P2
2021/03/09 00:00:33;;;;;;;7.75;4.53;;;;;;;-0.52;61.97;102205.06;5052372;28;20037;-77
2021/03/09 00:02:59;;;;;;;9.30;4.50;;;;;;;-0.48;61.47;102207.50;5052396;28;20052;-78
2021/03/09 00:05:25;;;;;;;8.70;3.90;;;;;;;-0.47;60.87;102206.63;5049415;28;20056;-77
2021/03/09 00:07:51;;;;;;;9.95;3.83;;;;;;;-0.48;61.26;102212.66;5038351;28;20049;-75
2021/03/09 00:10:16;;;;;;;8.52;3.65;;;;;;;-0.46;60.82;102204.91;5034270;28;20063;-78
2021/03/09 00:12:42;;;;;;;5.60;2.90;;;;;;;-0.47;60.70;102211.78;5016500;28;20037;-77
2021/03/09 00:15:08;;;;;;;8.40;3.50;;;;;;;-0.45;60.41;102207.44;5050831;28;20068;-77
2021/03/09 00:17:34;;;;;;;6.50;3.45;;;;;;;-0.40;60.64;102205.59;5036831;28;20044;-78
2021/03/09 00:20:01;;;;;;;8.00;3.40;;;;;;;-0.43;60.94;102204.81;5035201;28;20041;-77
2021/03/09 00:22:28;;;;;;;4.90;3.00;;;;;;;-0.49;60.88;102195.53;5045018;28;20102;-76
2021/03/09 00:24:53;;;;;;;6.97;3.30;;;;;;;-0.45;60.81;102201.44;5063034;28;20147;-78
2021/03/09 00:27:30;;;;;;;6.38;3.17;;;;;;;-0.48;61.01;102197.19;5047336;28;20041;-78
2021/03/09 00:29:56;;;;;;;8.35;3.60;;;;;;;-0.46;60.85;102199.75;5035762;28;20048;-78
2021/03/09 00:32:21;;;;;;;9.50;3.55;;;;;;;-0.46;60.75;102192.00;5035849;28;20033;-78
2021/03/09 00:34:47;;;;;;;8.43;3.25;;;;;;;-0.48;60.91;102197.19;5052040;28;20116;-78
2021/03/09 00:37:13;;;;;;;5.60;2.78;;;;;;;-0.49;60.92;102192.94;5049430;28;20035;-78
2021/03/09 00:39:38;;;;;;;6.60;3.05;;;;;;;-0.45;60.44;102196.28;5048651;28;20124;-78
2021/03/09 00:42:04;;;;;;;7.10;3.00;;;;;;;-0.49;60.67;102189.50;5047203;28;20064;-77
2021/03/09 00:44:29;;;;;;;6.07;3.03;;;;;;;-0.51;60.94;102180.97;5048252;28;20492;-77
2021/03/09 00:46:55;;;;;;;5.82;2.78;;;;;;;-0.50;60.51;102180.91;5021176;28;20099;-78
2021/03/09 00:49:20;;;;;;;6.97;2.90;;;;;;;-0.55;60.93;102179.34;5043829;28;20513;-79
2021/03/09 00:51:46;;;;;;;7.70;3.40;;;;;;;-0.49;60.53;102180.06;5051876;28;20042;-77
2021/03/09 00:54:12;;;;;;;7.68;3.72;;;;;;;-0.50;60.63;102175.78;5051041;28;20048;-76
2021/03/09 00:56:37;;;;;;;5.78;2.88;;;;;;;-0.54;60.33;102169.00;5042013;28;20110;-76
2021/03/09 00:59:03;;;;;;;7.32;2.53;;;;;;;-0.51;60.64;102170.66;5041751;28;20048;-77
2021/03/09 01:01:28;;;;;;;5.30;2.58;;;;;;;-0.51;60.30;102174.09;5033617;28;20048;-78
2021/03/09 01:03:54;;;;;;;8.70;3.17;;;;;;;-0.41;60.00;102165.22;5048044;28;20153;-77
2021/03/09 01:06:19;;;;;;;5.43;2.45;;;;;;;-0.47;60.78;102165.38;5020510;28;20095;-76
2021/03/09 01:08:45;;;;;;;7.13;2.90;;;;;;;-0.48;61.04;102158.53;5052110;28;20043;-78
2021/03/09 01:11:11;;;;;;;11.32;2.95;;;;;;;-0.41;60.68;102154.91;5045794;28;20077;-77
2021/03/09 01:13:36;;;;;;;6.60;3.22;;;;;;;-0.47;61.44;102155.06;5034802;28;20053;-76
2021/03/09 01:16:02;;;;;;;9.23;3.05;;;;;;;-0.51;61.17;102152.59;5043107;28;20099;-78
2021/03/09 01:18:28;;;;;;;5.97;2.47;;;;;;;-0.53;61.37;102138.91;5045919;28;20411;-78
2021/03/09 01:20:53;;;;;;;5.43;2.75;;;;;;;-0.49;60.82;102148.25;5043025;28;20044;-78
2021/03/09 01:23:19;;;;;;;7.38;2.88;;;;;;;-0.54;61.51;102144.97;5047291;28;20067;-78
2021/03/09 01:25:45;;;;;;;7.50;2.60;;;;;;;-0.55;61.98;102138.13;5051997;28;20071;-77
2021/03/09 01:28:11;;;;;;;8.38;2.55;;;;;;;-0.51;61.58;102138.00;5035396;28;20163;-77
2021/03/09 01:30:37;;;;;;;6.60;2.75;;;;;;;-0.48;60.91;102135.31;5034114;28;20098;-78
2021/03/09 01:33:04;;;;;;;7.18;2.60;;;;;;;-0.52;61.51;102133.72;5032384;28;20046;-77
2021/03/09 01:35:29;;;;;;;5.57;2.30;;;;;;;-0.50;61.19;102120.81;5038876;28;20716;-78
2021/03/09 01:37:55;;;;;;;4.55;2.50;;;;;;;-0.45;60.97;102121.53;5028317;28;20101;-78
2021/03/09 01:40:22;;;;;;;6.65;2.80;;;;;;;-0.51;61.33;102116.50;5043731;28;20053;-78
2021/03/09 01:42:48;;;;;;;8.32;2.53;;;;;;;-0.57;61.22;102117.53;5037054;28;20037;-77
2021/03/09 01:45:14;;;;;;;6.93;2.53;;;;;;;-0.51;61.50;102111.34;5030355;28;20059;-79
2021/03/09 01:47:42;;;;;;;6.13;2.83;;;;;;;-0.61;62.58;102103.88;5051412;28;20076;-83
2021/03/09 01:50:10;;;;;;;3.88;2.47;;;;;;;-0.56;61.28;102100.34;5045103;28;20053;-78
2021/03/09 01:52:36;;;;;;;6.90;2.42;;;;;;;-0.60;62.20;102102.16;5019454;28;20056;-79
2021/03/09 01:55:02;;;;;;;4.28;2.33;;;;;;;-0.55;61.39;102097.72;5029253;28;20053;-79
2021/03/09 01:57:28;;;;;;;5.88;2.17;;;;;;;-0.52;60.93;102091.66;5022789;28;20400;-78
2021/03/09 01:59:55;;;;;;;9.07;2.60;;;;;;;-0.50;60.57;102097.59;5054813;28;20067;-78
2021/03/09 02:02:21;;;;;;;5.43;2.10;;;;;;;-0.50;60.45;102087.28;5044171;28;20044;-78
2021/03/09 02:04:46;;;;;;;4.72;2.40;;;;;;;-0.53;61.06;102087.38;5033918;28;20048;-77
2021/03/09 02:07:12;;;;;;;7.55;2.25;;;;;;;-0.58;61.19;102077.19;5042518;28;20050;-77
2021/03/09 02:09:37;;;;;;;7.85;2.38;;;;;;;-0.58;60.89;102079.78;5022859;28;20048;-77
2021/03/09 02:12:13;;;;;;;4.47;2.08;;;;;;;-0.52;61.08;102083.91;5051190;28;20052;-78
2021/03/09 02:14:57;;;;;;;3.53;2.15;;;;;;;-0.54;61.52;102078.78;5039984;28;20064;-77
2021/03/09 02:17:28;;;;;;;5.70;2.40;;;;;;;-0.58;61.38;102079.78;5042296;28;20041;-77
2021/03/09 02:20:37;;;;;;;3.95;1.88;;;;;;;-0.54;60.86;102070.22;5053042;28;20080;-76
2021/03/09 02:23:21;;;;;;;3.90;1.75;;;;;;;-0.50;61.31;102071.81;5073797;28;20063;-76
2021/03/09 02:26:23;;;;;;;8.88;1.58;;;;;;;-0.51;60.72;102063.25;5052518;28;20061;-77
2021/03/09 02:29:18;;;;;;;6.55;2.40;;;;;;;-0.54;61.03;102065.91;5077241;28;20495;-76
2021/03/09 02:31:47;;;;;;;4.13;1.80;;;;;;;-0.47;60.50;102064.84;5038202;28;20048;-77
2021/03/09 02:34:19;;;;;;;3.25;1.83;;;;;;;-0.50;61.11;102066.66;5040856;28;20046;-77
2021/03/09 02:36:46;;;;;;;5.18;2.38;;;;;;;-0.50;62.15;102064.94;5035861;28;20033;-78
2021/03/09 02:39:13;;;;;;;5.43;2.08;;;;;;;-0.56;61.82;102057.38;5040413;28;20102;-76
2021/03/09 02:41:47;;;;;;;4.47;2.13;;;;;;;-0.58;62.01;102059.16;5054627;28;20135;-78
2021/03/09 02:44:21;;;;;;;3.83;1.95;;;;;;;-0.54;62.52;102055.59;5056588;28;20499;-78
2021/03/09 02:46:49;;;;;;;4.47;2.22;;;;;;;-0.54;61.70;102055.59;5049605;28;20080;-77
2021/03/09 02:49:16;;;;;;;3.00;1.83;;;;;;;-0.54;62.82;102054.75;5038202;28;20128;-77
2021/03/09 02:51:44;;;;;;;5.05;1.88;;;;;;;-0.57;62.72;102050.50;5058859;28;20283;-78
2021/03/09 02:54:13;;;;;;;4.25;1.70;;;;;;;-0.53;62.64;102051.28;5063831;28;20140;-77
2021/03/09 02:56:39;;;;;;;4.03;1.92;;;;;;;-0.52;62.32;102045.25;5061782;28;20060;-78
2021/03/09 02:59:08;;;;;;;3.88;2.05;;;;;;;-0.55;62.76;102043.59;5040694;28;20102;-77
2021/03/09 03:01:36;;;;;;;3.28;1.80;;;;;;;-0.54;62.36;102044.44;5066503;28;20558;-77
2021/03/09 03:04:04;;;;;;;4.18;2.05;;;;;;;-0.50;62.21;102031.41;5043659;28;20044;-78
2021/03/09 03:06:32;;;;;;;3.97;2.00;;;;;;;-0.56;62.66;102038.50;5038024;28;20060;-78
2021/03/09 03:09:01;;;;;;;6.43;2.17;;;;;;;-0.52;63.03;102030.63;5051102;28;20106;-78
2021/03/09 03:11:27;;;;;;;4.78;2.20;;;;;;;-0.55;63.04;102035.00;5040774;28;20045;-77
2021/03/09 03:13:53;;;;;;;4.25;2.00;;;;;;;-0.59;63.48;102042.81;5040353;28;20041;-77
2021/03/09 03:16:20;;;;;;;3.53;2.10;;;;;;;-0.56;62.90;102028.19;5076292;28;20427;-79
2021/03/09 03:18:48;;;;;;;4.65;1.83;;;;;;;-0.57;62.48;102034.22;5047726;28;20040;-79
2021/03/09 03:21:15;;;;;;;4.28;1.83;;;;;;;-0.64;61.59;102024.09;5006718;28;20095;-77
2021/03/09 03:23:43;;;;;;;7.13;2.17;;;;;;;-0.64;62.71;102015.47;5060587;28;20533;-78
2021/03/09 03:26:13;;;;;;;4.60;2.30;;;;;;;-0.67;63.18;102029.31;5056964;28;20045;-78
2021/03/09 03:28:43;;;;;;;4.75;2.10;;;;;;;-0.67;62.69;102026.72;5052577;28;20070;-78
2021/03/09 03:31:09;;;;;;;8.18;2.40;;;;;;;-0.65;63.08;102027.53;5050388;28;20049;-79
2021/03/09 03:33:35;;;;;;;5.90;2.38;;;;;;;-0.75;63.99;102020.09;5035216;28;20048;-78
2021/03/09 03:36:04;;;;;;;7.35;2.22;;;;;;;-0.72;63.42;102032.91;5056408;28;20049;-79
2021/03/09 03:38:35;;;;;;;5.95;2.28;;;;;;;-0.69;63.75;102033.66;5029490;28;20051;-77
2021/03/09 03:41:02;;;;;;;6.38;2.22;;;;;;;-0.74;63.69;102029.53;5046928;28;20036;-75
2021/03/09 03:43:28;;;;;;;4.50;2.35;;;;;;;-0.67;63.21;102031.06;5035684;28;20047;-77
2021/03/09 03:45:54;;;;;;;6.55;2.15;;;;;;;-0.69;64.08;102032.81;5054421;28;20049;-79
2021/03/09 03:48:21;;;;;;;5.03;2.13;;;;;;;-0.69;64.60;102037.97;5013938;28;20044;-75
2021/03/09 03:50:48;;;;;;;5.38;2.42;;;;;;;-0.70;63.88;102028.56;5054855;28;20483;-76
2021/03/09 03:53:27;;;;;;;5.50;2.15;;;;;;;-0.72;63.74;102028.59;5050299;28;20088;-77
2021/03/09 03:55:55;;;;;;;5.90;2.22;;;;;;;-0.77;63.48;102022.75;5033836;28;20050;-77
2021/03/09 03:58:35;;;;;;;4.38;2.40;;;;;;;-0.72;62.72;102020.03;5055468;28;20091;-78
2021/03/09 04:01:02;;;;;;;5.80;2.55;;;;;;;-0.76;63.66;102016.69;5055040;28;20076;-77
2021/03/09 04:03:31;;;;;;;6.45;2.50;;;;;;;-0.75;63.22;102015.81;5054844;28;20060;-78
2021/03/09 04:05:59;;;;;;;4.65;2.00;;;;;;;-0.72;63.54;102015.69;5056857;28;20092;-76
2021/03/09 04:08:24;;;;;;;5.63;2.10;;;;;;;-0.64;62.81;102010.34;5014003;28;20080;-76
2021/03/09 04:10:52;;;;;;;5.82;2.03;;;;;;;-0.67;63.37;102018.16;5042102;28;20047;-80
2021/03/09 04:13:17;;;;;;;3.72;1.90;;;;;;;-0.65;63.16;102013.81;5045386;28;20057;-78
2021/03/09 04:15:44;;;;;;;4.28;2.30;;;;;;;-0.67;63.37;102007.88;5048683;28;20060;-78
2021/03/09 04:18:12;;;;;;;7.25;2.25;;;;;;;-0.70;63.93;102008.78;5021562;28;20060;-76
2021/03/09 04:20:41;;;;;;;4.93;2.22;;;;;;;-0.68;63.63;102016.47;5056250;28;20104;-76
2021/03/09 04:23:08;;;;;;;5.15;2.03;;;;;;;-0.75;63.73;102012.38;5050777;28;20048;-78
2021/03/09 04:25:35;;;;;;;5.07;2.30;;;;;;;-0.68;63.97;102009.59;5052814;28;20048;-78
2021/03/09 04:28:05;;;;;;;5.78;2.35;;;;;;;-0.70;64.01;102007.94;5054879;28;20369;-78
2021/03/09 04:30:34;;;;;;;4.22;2.10;;;;;;;-0.72;64.25;102010.53;5042055;28;20507;-77
2021/03/09 04:33:01;;;;;;;3.17;1.92;;;;;;;-0.73;64.17;102011.44;5032995;28;20049;-78
2021/03/09 04:35:27;;;;;;;6.32;2.00;;;;;;;-0.70;64.13;102007.94;5022854;28;20132;-79
2021/03/09 04:37:53;;;;;;;5.57;2.40;;;;;;;-0.69;63.62;102005.31;5047816;28;20037;-78
2021/03/09 04:40:20;;;;;;;5.10;2.38;;;;;;;-0.69;63.40;102002.75;5057642;28;20045;-77
2021/03/09 04:42:45;;;;;;;4.45;1.90;;;;;;;-0.74;64.22;102007.16;5058126;28;20044;-77
2021/03/09 04:45:12;;;;;;;5.32;2.50;;;;;;;-0.71;63.58;102011.41;5056129;28;20082;-77
2021/03/09 04:47:38;;;;;;;5.45;2.47;;;;;;;-0.72;63.31;102010.53;5054731;28;20048;-78
2021/03/09 04:50:07;;;;;;;8.10;2.40;;;;;;;-0.69;63.97;102014.78;5038437;28;20036;-78
2021/03/09 04:52:33;;;;;;;7.15;2.40;;;;;;;-0.66;63.24;102009.53;5035497;28;20050;-76
2021/03/09 04:54:59;;;;;;;4.57;2.25;;;;;;;-0.67;63.44;102002.72;5036821;28;20048;-77
2021/03/09 04:57:41;;;;;;;3.90;2.10;;;;;;;-0.62;63.37;102012.00;5034284;28;20073;-79
2021/03/09 05:00:09;;;;;;;6.07;2.00;;;;;;;-0.57;63.17;102005.88;5037579;28;20056;-77
2021/03/09 05:02:35;;;;;;;4.47;1.88;;;;;;;-0.59;63.26;102011.88;5036132;28;20045;-77
2021/03/09 05:05:01;;;;;;;5.18;2.08;;;;;;;-0.54;62.58;102005.78;5030422;28;20478;-78
2021/03/09 05:07:26;;;;;;;5.10;2.17;;;;;;;-0.59;62.91;102004.16;5053091;28;20091;-80
2021/03/09 05:09:52;;;;;;;5.93;2.40;;;;;;;-0.54;62.81;102011.78;5042251;28;20037;-78
2021/03/09 05:12:17;;;;;;;4.78;2.22;;;;;;;-0.57;63.70;102005.88;5054310;28;20065;-76
2021/03/09 05:14:43;;;;;;;7.25;2.40;;;;;;;-0.55;64.47;102010.06;5032710;28;20065;-78
2021/03/09 05:17:09;;;;;;;5.43;2.28;;;;;;;-0.54;64.68;102013.53;5036792;28;20052;-78
2021/03/09 05:19:34;;;;;;;8.25;2.17;;;;;;;-0.50;64.57;102018.53;5021273;28;20053;-76
2021/03/09 05:22:00;;;;;;;3.97;2.03;;;;;;;-0.56;65.71;102010.97;5035778;28;20056;-76
2021/03/09 05:24:25;;;;;;;5.55;2.47;;;;;;;-0.60;66.23;102015.38;5055853;28;20049;-78
2021/03/09 05:26:51;;;;;;;5.00;2.30;;;;;;;-0.66;67.11;102010.41;5031780;28;20399;-77
2021/03/09 05:29:16;;;;;;;4.05;2.22;;;;;;;-0.73;67.44;102008.88;5039217;28;20049;-78
2021/03/09 05:31:42;;;;;;;4.38;2.30;;;;;;;-0.77;68.57;102015.00;5050960;28;20092;-78
2021/03/09 05:34:07;;;;;;;4.07;2.15;;;;;;;-0.81;68.88;102010.81;5020337;28;20467;-78
2021/03/09 05:36:33;;;;;;;6.25;2.00;;;;;;;-0.81;68.94;102009.09;5052513;28;20041;-76
2021/03/09 05:38:59;;;;;;;4.13;1.90;;;;;;;-0.85;69.68;102019.50;5057779;28;20056;-77
2021/03/09 05:41:25;;;;;;;9.20;2.60;;;;;;;-0.87;70.05;102019.53;5053597;28;20060;-78
2021/03/09 05:43:54;;;;;;;8.30;2.70;;;;;;;-0.87;70.32;102016.13;5037517;28;20212;-76
2021/03/09 05:46:20;;;;;;;4.60;2.45;;;;;;;-0.86;70.01;102015.25;5020949;28;20157;-77
2021/03/09 05:48:45;;;;;;;4.22;2.10;;;;;;;-0.83;69.31;102010.00;5053212;28;20551;-76
2021/03/09 05:51:11;;;;;;;4.22;2.30;;;;;;;-0.83;68.42;102007.41;5033684;28;20057;-77
2021/03/09 05:53:36;;;;;;;9.43;2.20;;;;;;;-0.83;68.20;102010.00;5035773;28;20168;-78
2021/03/09 05:56:06;;;;;;;6.28;2.28;;;;;;;-0.72;68.09;102014.88;5000336;28;20049;-77
2021/03/09 05:58:32;;;;;;;5.00;2.28;;;;;;;-0.72;68.01;102020.03;5009878;28;20037;-78
2021/03/09 06:00:58;;;;;;;5.80;2.40;;;;;;;-0.70;68.00;102019.06;5019203;28;20104;-77
2021/03/09 06:03:25;;;;;;;4.15;2.33;;;;;;;-0.66;67.47;102020.72;5052673;28;20060;-79
2021/03/09 06:05:51;;;;;;;5.57;2.13;;;;;;;-0.65;68.48;102014.66;5039890;28;20095;-77
2021/03/09 06:08:16;;;;;;;4.00;2.08;;;;;;;-0.66;69.70;102030.16;5023790;28;20037;-77
2021/03/09 06:10:42;;;;;;;4.85;2.25;;;;;;;-0.69;70.16;102022.53;5055121;28;20045;-78
2021/03/09 06:13:08;;;;;;;6.00;2.38;;;;;;;-0.74;71.94;102025.22;5053691;28;20079;-78
2021/03/09 06:15:53;;;;;;;3.63;2.10;;;;;;;-0.83;72.63;102025.47;5037410;28;20458;-77
2021/03/09 06:18:25;;;;;;;4.82;2.55;;;;;;;-0.88;73.88;102028.16;5055690;28;21066;-77
2021/03/09 06:21:15;;;;;;;5.27;2.80;;;;;;;-0.90;74.23;102026.53;5055212;28;20060;-78
2021/03/09 06:23:42;;;;;;;5.13;2.50;;;;;;;-0.97;75.12;102025.84;5035667;28;20300;-78
2021/03/09 06:26:35;;;;;;;6.03;2.28;;;;;;;-1.05;76.81;102023.47;5054075;28;20506;-76
2021/03/09 06:29:13;;;;;;;5.80;2.78;;;;;;;-1.04;77.30;102019.16;5030553;28;20056;-79
2021/03/09 06:31:41;;;;;;;4.63;2.40;;;;;;;-1.07;77.66;102017.53;5035595;28;20041;-78
2021/03/09 06:34:26;;;;;;;6.68;2.50;;;;;;;-1.02;77.96;102019.97;5035275;28;20052;-78
2021/03/09 06:37:04;;;;;;;6.07;2.85;;;;;;;-1.08;77.95;102027.84;5027121;28;20179;-77
2021/03/09 06:39:54;;;;;;;6.82;2.80;;;;;;;-1.13;78.65;102016.81;5034079;28;20041;-78
2021/03/09 06:42:26;;;;;;;6.18;2.85;;;;;;;-1.13;78.91;102015.09;5034911;28;20053;-75
2021/03/09 06:45:09;;;;;;;6.90;2.63;;;;;;;-1.14;78.81;102010.00;5051554;28;20101;-77
2021/03/09 06:47:46;;;;;;;6.15;3.10;;;;;;;-1.13;79.57;102014.25;5034463;28;20053;-76
2021/03/09 06:50:14;;;;;;;6.45;3.00;;;;;;;-1.10;79.87;102016.75;5053193;28;20045;-78
2021/03/09 06:52:41;;;;;;;4.80;2.80;;;;;;;-1.20;79.51;102013.56;5054251;28;20045;-77
2021/03/09 06:55:09;;;;;;;7.97;2.83;;;;;;;-1.18;79.61;102012.63;5054022;28;20041;-77
2021/03/09 06:57:35;;;;;;;6.25;2.95;;;;;;;-1.19;80.11;102021.25;5036835;28;20094;-78
2021/03/09 07:00:01;;;;;;;5.25;2.90;;;;;;;-1.18;80.45;102024.69;5054211;28;20049;-75
2021/03/09 07:02:28;;;;;;;6.30;2.90;;;;;;;-1.17;80.92;102021.19;5015429;28;20041;-78
2021/03/09 07:05:01;;;;;;;8.25;3.25;;;;;;;-1.21;80.69;102019.59;5052244;28;20519;-77
2021/03/09 07:07:36;;;;;;;5.25;3.22;;;;;;;-1.19;81.44;102021.25;5029573;28;20047;-77
2021/03/09 07:10:05;;;;;;;8.13;3.60;;;;;;;-1.17;82.13;102026.34;5074327;28;20143;-78
2021/03/09 07:12:32;;;;;;;6.97;3.15;;;;;;;-1.23;81.73;102016.22;5058001;28;20037;-77
2021/03/09 07:14:59;;;;;;;5.72;3.60;;;;;;;-1.30;82.57;102017.25;5028583;28;20045;-78
2021/03/09 07:17:27;;;;;;;7.15;3.30;;;;;;;-1.31;82.99;102016.41;5057937;28;20045;-76
2021/03/09 07:19:54;;;;;;;5.95;3.75;;;;;;;-1.32;83.70;102014.72;5040835;28;20129;-77
2021/03/09 07:22:22;;;;;;;12.65;3.72;;;;;;;-1.33;83.80;102010.47;5032115;28;20056;-77
2021/03/09 07:25:02;;;;;;;9.15;3.85;;;;;;;-1.32;84.76;102013.88;5043363;28;20049;-78
2021/03/09 07:27:48;;;;;;;5.05;3.25;;;;;;;-1.39;84.95;102008.88;5036810;28;20080;-78
2021/03/09 07:30:15;;;;;;;10.32;3.70;;;;;;;-1.45;85.07;102015.91;5050807;28;20095;-77
2021/03/09 07:32:44;;;;;;;6.82;3.50;;;;;;;-1.41;85.79;102020.94;5015668;28;20148;-77
2021/03/09 07:35:10;;;;;;;9.73;3.47;;;;;;;-1.39;85.69;102023.50;5037284;28;20053;-77
2021/03/09 07:37:39;;;;;;;10.95;3.83;;;;;;;-1.40;86.22;102019.22;5030275;28;20061;-77
2021/03/09 07:40:08;;;;;;;7.10;3.72;;;;;;;-1.36;86.70;102015.69;5060284;28;20040;-77
2021/03/09 07:42:33;;;;;;;9.20;3.70;;;;;;;-1.27;86.18;102017.19;5059424;28;20045;-76
2021/03/09 07:45:01;;;;;;;9.85;4.35;;;;;;;-1.32;86.47;102019.03;5056938;28;20063;-76
2021/03/09 07:47:26;;;;;;;9.10;3.83;;;;;;;-1.36;86.35;102015.69;5089659;28;20045;-75
2021/03/09 07:49:52;;;;;;;9.55;4.07;;;;;;;-1.40;87.02;102014.91;5043613;28;20048;-76
2021/03/09 07:52:20;;;;;;;8.77;4.50;;;;;;;-1.36;87.32;102015.69;5064619;28;20048;-76
2021/03/09 07:55:04;;;;;;;9.02;4.15;;;;;;;-1.35;86.93;102009.66;5063128;28;20044;-77
2021/03/09 07:57:32;;;;;;;9.25;5.15;;;;;;;-1.37;87.36;102004.53;5046519;28;20056;-74
2021/03/09 07:59:59;;;;;;;12.32;4.38;;;;;;;-1.35;87.14;102004.50;5073564;28;20056;-76
2021/03/09 08:02:57;;;;;;;12.00;5.30;;;;;;;-1.26;87.44;102017.16;5056692;28;20033;-79
2021/03/09 08:05:29;;;;;;;13.10;5.10;;;;;;;-1.19;87.71;102007.53;5037601;28;20064;-76
2021/03/09 08:08:03;;;;;;;10.30;4.15;;;;;;;-1.13;87.04;102003.94;5036634;28;20040;-77
2021/03/09 08:10:33;;;;;;;11.88;4.78;;;;;;;-1.06;86.54;102006.31;5016979;28;20036;-77
2021/03/09 08:13:07;;;;;;;12.55;5.00;;;;;;;-1.04;86.97;102007.13;5034160;28;20420;-79
2021/03/09 08:15:38;;;;;;;12.90;5.30;;;;;;;-1.01;86.56;102001.88;5020811;28;20099;-78
2021/03/09 08:18:22;;;;;;;11.40;5.07;;;;;;;-0.96;86.78;101998.34;5039144;28;20451;-75
2021/03/09 08:20:52;;;;;;;13.32;5.60;;;;;;;-0.94;86.72;102002.59;5045340;28;20045;-76
2021/03/09 08:23:41;;;;;;;12.43;6.10;;;;;;;-0.91;86.73;101993.91;5053981;28;20045;-75
2021/03/09 08:26:22;;;;;;;11.52;5.45;;;;;;;-0.85;86.68;101997.19;5051524;28;20041;-78
2021/03/09 08:28:49;;;;;;;14.25;5.93;;;;;;;-0.83;86.34;102000.56;5058740;28;20124;-77
2021/03/09 08:31:17;;;;;;;16.38;6.30;;;;;;;-0.84;86.60;101993.72;5035372;28;20034;-77
2021/03/09 08:33:46;;;;;;;12.70;5.88;;;;;;;-0.79;86.45;101998.75;5048355;28;20069;-78
2021/03/09 08:36:20;;;;;;;9.15;5.15;;;;;;;-0.73;86.43;101995.16;5058748;28;20126;-77
2021/03/09 08:39:05;;;;;;;13.55;5.43;;;;;;;-0.71;85.88;101986.50;5049797;28;20046;-78
2021/03/09 08:41:43;;;;;;;9.57;5.28;;;;;;;-0.71;85.68;101996.78;5041266;28;20657;-76
2021/03/09 08:44:20;;;;;;;13.70;5.75;;;;;;;-0.75;86.04;101989.16;5065047;28;20072;-78
2021/03/09 08:47:07;;;;;;;11.98;5.72;;;;;;;-0.69;86.14;101989.03;5031870;28;20045;-78
2021/03/09 08:49:36;;;;;;;10.85;5.68;;;;;;;-0.62;86.08;101991.38;5070916;28;20041;-78
2021/03/09 08:52:05;;;;;;;10.40;5.75;;;;;;;-0.52;85.84;101983.38;5036745;28;20049;-79
2021/03/09 08:54:40;;;;;;;11.05;5.45;;;;;;;-0.49;85.29;101985.84;5054841;28;20091;-79
2021/03/09 08:57:12;;;;;;;11.73;5.28;;;;;;;-0.58;84.59;101989.56;5056743;28;20499;-76
2021/03/09 08:59:39;;;;;;;9.07;5.07;;;;;;;-0.53;84.93;101992.00;5055665;28;20512;-78
2021/03/09 09:02:13;;;;;;;10.13;5.30;;;;;;;-0.44;84.92;101989.16;5023213;28;20041;-77
2021/03/09 09:04:52;;;;;;;9.85;4.93;;;;;;;-0.37;84.37;101985.50;5034364;28;20072;-76
2021/03/09 09:07:28;;;;;;;10.93;5.32;;;;;;;-0.35;83.96;101977.72;5048682;28;20539;-76
2021/03/09 09:09:54;;;;;;;13.10;5.82;;;;;;;-0.40;83.79;101980.44;5045067;28;20064;-77
2021/03/09 09:12:28;;;;;;;15.95;5.30;;;;;;;-0.33;83.98;101986.25;5018649;28;20049;-77
2021/03/09 09:15:07;;;;;;;12.85;5.78;;;;;;;-0.24;83.05;101981.66;5059162;28;20383;-78
2021/03/09 09:17:35;;;;;;;10.45;5.45;;;;;;;-0.25;83.80;101981.72;5044217;28;20125;-78
2021/03/09 09:20:13;;;;;;;10.75;5.45;;;;;;;-0.27;83.92;101984.34;5036246;28;20053;-77
2021/03/09 09:22:39;;;;;;;14.13;6.22;;;;;;;-0.18;84.14;101983.22;5038958;28;20068;-77
2021/03/09 09:25:10;;;;;;;11.40;5.47;;;;;;;-0.11;84.56;101984.72;5053108;28;20044;-78
2021/03/09 09:27:39;;;;;;;11.68;5.03;;;;;;;-0.04;84.02;101978.50;5071269;28;20506;-78
2021/03/09 09:30:05;;;;;;;11.23;5.63;;;;;;;-0.04;82.59;101985.38;5055271;28;20046;-77
2021/03/09 09:32:51;;;;;;;10.32;5.40;;;;;;;-0.09;82.66;101982.94;5035638;28;20049;-77
2021/03/09 09:35:19;;;;;;;10.90;5.78;;;;;;;-0.08;83.04;101994.09;5001559;28;20053;-76
2021/03/09 09:37:59;;;;;;;10.98;5.68;;;;;;;-0.13;81.99;101993.38;5044764;28;20049;-78
2021/03/09 09:40:29;;;;;;;14.95;5.88;;;;;;;-0.13;82.42;101990.81;5020922;28;20041;-80
2021/03/09 09:42:57;;;;;;;12.73;6.10;;;;;;;-0.20;82.53;101983.25;5035922;28;20113;-78
2021/03/09 09:45:24;;;;;;;13.35;6.13;;;;;;;-0.20;82.68;101987.59;5027662;28;20064;-79
2021/03/09 09:47:51;;;;;;;12.35;6.15;;;;;;;-0.20;82.36;101988.41;5045444;28;20025;-77
2021/03/09 09:50:19;;;;;;;13.20;7.55;;;;;;;-0.20;82.53;101983.25;5047362;28;20115;-77
2021/03/09 09:52:55;;;;;;;15.82;6.90;;;;;;;-0.23;82.60;101985.94;5038155;28;20037;-76
2021/03/09 09:55:26;;;;;;;13.10;6.38;;;;;;;-0.18;82.80;101984.97;5030904;28;20053;-77
2021/03/09 09:57:56;;;;;;;13.70;7.18;;;;;;;-0.17;83.45;101990.06;5063986;28;20061;-77
2021/03/09 10:00:29;;;;;;;13.82;6.72;;;;;;;-0.10;83.05;101983.81;5035293;28;20044;-78
2021/03/09 10:03:15;;;;;;;15.00;7.05;;;;;;;-0.05;82.74;101978.53;5031947;28;20056;-76
2021/03/09 10:05:42;;;;;;;13.05;6.55;;;;;;;-0.03;82.47;101984.47;5064956;28;20564;-77
2021/03/09 10:08:09;;;;;;;14.43;7.13;;;;;;;0.01;82.54;101985.25;5048950;28;20734;-77
2021/03/09 10:10:36;;;;;;;15.25;6.75;;;;;;;0.03;82.17;101986.88;5043619;28;20414;-77
2021/03/09 10:13:18;;;;;;;12.93;6.05;;;;;;;0.08;81.28;101979.84;5053697;28;20095;-77
2021/03/09 10:15:47;;;;;;;13.98;7.25;;;;;;;0.10;82.03;101977.22;5049308;28;20052;-78
2021/03/09 10:18:21;;;;;;;13.75;6.63;;;;;;;0.13;81.87;101982.25;5047776;28;20127;-77
2021/03/09 10:20:57;;;;;;;11.52;6.88;;;;;;;0.22;82.24;101984.53;5028693;28;20043;-78
2021/03/09 10:23:23;;;;;;;13.60;7.10;;;;;;;0.25;81.04;101975.88;5035718;28;20389;-78
2021/03/09 10:25:55;;;;;;;19.10;7.50;;;;;;;0.25;80.22;101978.47;5053565;28;20052;-77
2021/03/09 10:28:25;;;;;;;18.00;8.17;;;;;;;0.29;80.80;101982.63;5054674;28;20049;-76
2021/03/09 10:30:50;;;;;;;15.00;7.18;;;;;;;0.29;79.36;101973.13;5051402;28;20506;-78
2021/03/09 10:33:16;;;;;;;14.18;6.75;;;;;;;0.28;79.98;101975.75;5019356;28;20060;-76
2021/03/09 10:36:05;;;;;;;12.32;7.13;;;;;;;0.34;79.94;101985.88;5046284;28;20118;-77
2021/03/09 10:38:32;;;;;;;14.88;7.65;;;;;;;0.32;79.06;101978.22;5065571;28;20087;-78
2021/03/09 10:40:58;;;;;;;19.02;6.80;;;;;;;0.32;79.47;101975.63;5065031;28;20798;-78
2021/03/09 10:43:40;;;;;;;18.42;7.53;;;;;;;0.38;79.64;101983.16;5054178;28;20040;-78
2021/03/09 10:46:06;;;;;;;17.13;8.02;;;;;;;0.39;79.74;101978.84;5055089;28;20048;-78
2021/03/09 10:48:32;;;;;;;16.38;8.20;;;;;;;0.44;79.42;101978.69;5054000;28;20469;-78
2021/03/09 10:50:57;;;;;;;15.95;8.07;;;;;;;0.47;79.92;101976.84;5052572;28;20076;-77
2021/03/09 10:53:23;;;;;;;16.60;8.25;;;;;;;0.53;80.11;101978.41;5048110;28;20068;-78
2021/03/09 10:55:48;;;;;;;15.70;7.53;;;;;;;0.54;80.54;101969.75;5053491;28;20041;-78
2021/03/09 10:58:14;;;;;;;15.95;7.93;;;;;;;0.58;80.73;101977.34;5031964;28;20041;-78
2021/03/09 11:00:39;;;;;;;14.52;7.57;;;;;;;0.65;81.38;101977.13;5040129;28;20037;-75
2021/03/09 11:03:05;;;;;;;13.48;8.10;;;;;;;0.65;80.71;101975.38;5054667;28;20137;-77
2021/03/09 11:05:30;;;;;;;15.98;7.68;;;;;;;0.68;80.54;101975.28;5038485;28;20068;-77
2021/03/09 11:07:56;;;;;;;14.80;7.85;;;;;;;0.76;81.34;101964.69;5055363;28;20049;-77
2021/03/09 11:10:21;;;;;;;18.17;8.00;;;;;;;0.85;80.37;101969.53;5050867;28;20064;-78
2021/03/09 11:12:47;;;;;;;15.70;8.10;;;;;;;0.88;80.00;101973.75;5037901;28;20192;-77
2021/03/09 11:15:13;;;;;;;15.63;7.38;;;;;;;0.91;80.59;101965.91;5031489;28;20571;-77
2021/03/09 11:17:38;;;;;;;17.52;7.40;;;;;;;0.92;79.97;101962.41;5039856;28;20040;-76
2021/03/09 11:20:06;;;;;;;14.55;7.35;;;;;;;1.05;80.21;101967.97;5033833;28;20093;-77
2021/03/09 11:22:32;;;;;;;11.18;6.30;;;;;;;1.11;80.67;101970.34;5036035;28;20238;-77
2021/03/09 11:24:57;;;;;;;17.20;7.68;;;;;;;1.08;80.43;101962.72;5039337;28;20408;-76
2021/03/09 11:27:24;;;;;;;18.83;7.25;;;;;;;1.14;81.58;101960.72;5055677;28;20045;-77
2021/03/09 11:29:49;;;;;;;15.95;8.00;;;;;;;1.07;80.70;101964.44;5037852;28;20400;-76
2021/03/09 11:32:15;;;;;;;18.10;8.07;;;;;;;1.02;79.96;101963.78;5036758;28;20047;-77
2021/03/09 11:34:40;;;;;;;15.27;7.70;;;;;;;0.97;79.81;101973.41;5049498;28;20079;-78